Nautic — A8HQ3 — position and weather

sailwx.info

Track history (hours):
 
Tides and Currents Weather Stations Pressure Air Temp Water Temp Dewpoint Dewpoint Depression Visibility Wind Speed Wind Dir Waves Ship Positions

Nautic

Last reported at 2017-May-17 07:48 UTC. Time now 2017-May-26 20:43 UTC.
Position N 30°59' E 032°19'.
Warning: this ship's position is 9 days out of date.

Length 274 m; draft 14.5 m.

Type: Ship. MMSI: 636012754.

Date/timePositionNaut miles runAvg speedWind from/ knotsBaromVisibWave heightAir tempDewpointWater temp
2017-May-17 07:48N 30°59' E 032°19'3 8.3
2017-May-17 07:26N 31°02' E 032°19'16 7.6
2017-May-17 05:22N 31°17' E 032°22'5 9.4
2017-May-17 04:52N 31°22' E 032°23'5 7.6
2017-May-17 04:10N 31°27' E 032°23'4 8.6
2017-May-17 03:45N 31°28' E 032°19'1 0.1
2017-May-16 18:59N 31°28' E 032°18'8 3.9
2017-May-16 16:57N 31°33' E 032°11'4 8.2
2017-May-16 16:30N 31°36' E 032°08'5 9.9
2017-May-16 16:00N 31°39' E 032°04'1111.0
2017-May-16 14:59N 31°47' E 031°55'4710.8
2017-May-16 10:39N 32°13' E 031°09'211.1
2017-May-16 10:30N 32°14' E 031°07'  
2017-May-13 08:35N 35°17' E 016°15'1 7.0
2017-May-13 08:30N 35°17' E 016°14'4 6.7
2017-May-13 07:52N 35°18' E 016°09'2 5.9
2017-May-13 07:29N 35°18' E 016°07'3010.8
2017-May-13 04:40N 35°24' E 015°30'311.4
2017-May-13 04:22N 35°25' E 015°26'2511.3
2017-May-13 02:11N 35°29' E 014°56'311.3
2017-May-13 01:55N 35°29' E 014°53'1611.4
2017-May-13 00:30N 35°32' E 014°33'611.3
2017-May-13 00:00N 35°33' E 014°26'611.2
2017-May-12 23:27N 35°35' E 014°19'511.0
2017-May-12 23:00N 35°38' E 014°14'611.0
2017-May-12 22:30N 35°41' E 014°09'611.0
2017-May-12 22:00N 35°45' E 014°03'1111.6
2017-May-12 21:05N 35°51' E 013°53'211.7
2017-May-12 20:56N 35°52' E 013°52'511.6
2017-May-12 20:30N 35°56' E 013°47'611.5
2017-May-12 19:57N 35°60' E 013°41'1311.3
2017-May-12 18:46N 36°08' E 013°28'311.3
2017-May-12 18:30N 36°10' E 013°25'611.2
2017-May-12 17:57N 36°14' E 013°19'710.9
2017-May-12 17:21N 36°18' E 013°13'410.8
2017-May-12 17:00N 36°20' E 013°09'910.9
2017-May-12 16:10N 36°26' E 013°00'210.9
2017-May-12 16:00N 36°27' E 012°59'611.0
2017-May-12 15:28N 36°31' E 012°53'14010.9
2017-May-12 02:39N 37°34' E 010°17'211.3
2017-May-12 02:30N 37°34' E 010°15'611.5
2017-May-12 02:00N 37°34' E 010°07'1111.8
2017-May-12 01:02N 37°34' E 009°53'111.4
2017-May-12 00:59N 37°34' E 009°53'511.2
2017-May-12 00:30N 37°34' E 009°46'38311.4
2017-May-10 14:48N 36°53' E 001°48'1111.2
2017-May-10 13:50N 36°49' E 001°35'411.4
2017-May-10 13:30N 36°48' E 001°31'611.6
2017-May-10 13:00N 36°47' E 001°24'611.9
2017-May-10 12:30N 36°45' E 001°17'93 2.0
2017-May-08 14:01N 35°51' W 000°18'0 0.5
2017-May-08 13:30N 35°51' W 000°18'2 2.5
2017-May-08 12:53N 35°51' W 000°16'2 3.7
2017-May-08 12:24N 35°53' W 000°15'3 5.9
2017-May-08 11:53N 35°56' W 000°15'1 1.7
2017-May-08 11:30N 35°56' W 000°16'1 2.1
2017-May-08 11:00N 35°57' W 000°17'3 5.9
2017-May-08 10:30N 35°60' W 000°19'2 3.7
2017-May-08 10:00N 36°01' W 000°19'0 0.7
2017-May-08 09:30N 36°02' W 000°19'1 0.8
2017-May-08 08:42N 36°02' W 000°18'0 0.7
2017-May-08 08:13N 36°02' W 000°18'0 0.7
2017-May-08 07:58N 36°02' W 000°18'1 0.7
2017-May-08 06:55N 36°03' W 000°17'0 0.9
2017-May-08 06:30N 36°03' W 000°17'1 1.2
2017-May-08 05:55N 36°04' W 000°18'3 3.8
2017-May-08 05:09N 36°06' W 000°20'2 4.7
2017-May-08 04:39N 36°08' W 000°22'0 1.2
2017-May-08 04:18N 36°07' W 000°22'0 0.7
2017-May-08 03:50N 36°07' W 000°21'0 0.7
2017-May-08 03:27N 36°07' W 000°21'3 0.9
2017-May-07 23:35N 36°06' W 000°17'1 1.1
2017-May-07 22:42N 36°05' W 000°16'0 1.2
2017-May-07 22:30N 36°05' W 000°16'1 1.2
2017-May-07 22:00N 36°05' W 000°15'1 0.4
2017-May-07 19:37N 36°04' W 000°15'0 1.1
2017-May-07 19:30N 36°04' W 000°15'1 1.1
2017-May-07 19:00N 36°05' W 000°15'1 1.4
2017-May-07 18:29N 36°05' W 000°15'1 2.3
2017-May-07 18:00N 36°06' W 000°16'4 8.5
2017-May-07 17:30N 36°10' W 000°17'7 6.2
2017-May-07 16:24N 36°17' W 000°18'0 0.8
2017-May-07 15:58N 36°17' W 000°17'2 1.0
2017-May-07 13:57N 36°16' W 000°15'0 1.0
2017-May-07 13:30N 36°16' W 000°15'0 0.9
2017-May-07 13:00N 36°15' W 000°14'0 1.0
2017-May-07 12:30N 36°15' W 000°14'0 1.0
2017-May-07 12:00N 36°15' W 000°13'0 0.9
2017-May-07 11:29N 36°15' W 000°13'  
Track history (hours):
 
Tides and Currents Weather Stations Pressure Air Temp Water Temp Dewpoint Dewpoint Depression Visibility Wind Speed Wind Dir Waves Ship Positions

Nautic

Last reported at 2017-May-17 07:48 UTC. Time now 2017-May-26 20:43 UTC.
Position N 30°59' E 032°19'.
Warning: this ship's position is 9 days out of date.

Length 274 m; draft 14.5 m.

Type: Ship. MMSI: 636012754.

Date/timePositionNaut miles runAvg speedWind from/ knotsBaromVisibWave heightAir tempDewpointWater temp
2017-May-17 07:48N 30°59' E 032°19'3 8.3
2017-May-17 07:26N 31°02' E 032°19'16 7.6
2017-May-17 05:22N 31°17' E 032°22'5 9.4
2017-May-17 04:52N 31°22' E 032°23'5 7.6
2017-May-17 04:10N 31°27' E 032°23'4 8.6
2017-May-17 03:45N 31°28' E 032°19'1 0.1
2017-May-16 18:59N 31°28' E 032°18'8 3.9
2017-May-16 16:57N 31°33' E 032°11'4 8.2
2017-May-16 16:30N 31°36' E 032°08'5 9.9
2017-May-16 16:00N 31°39' E 032°04'1111.0
2017-May-16 14:59N 31°47' E 031°55'4710.8
2017-May-16 10:39N 32°13' E 031°09'211.1
2017-May-16 10:30N 32°14' E 031°07'  
2017-May-13 08:35N 35°17' E 016°15'1 7.0
2017-May-13 08:30N 35°17' E 016°14'4 6.7
2017-May-13 07:52N 35°18' E 016°09'2 5.9
2017-May-13 07:29N 35°18' E 016°07'3010.8
2017-May-13 04:40N 35°24' E 015°30'311.4
2017-May-13 04:22N 35°25' E 015°26'2511.3
2017-May-13 02:11N 35°29' E 014°56'311.3
2017-May-13 01:55N 35°29' E 014°53'1611.4
2017-May-13 00:30N 35°32' E 014°33'611.3
2017-May-13 00:00N 35°33' E 014°26'611.2
2017-May-12 23:27N 35°35' E 014°19'511.0
2017-May-12 23:00N 35°38' E 014°14'611.0
2017-May-12 22:30N 35°41' E 014°09'611.0
2017-May-12 22:00N 35°45' E 014°03'1111.6
2017-May-12 21:05N 35°51' E 013°53'211.7
2017-May-12 20:56N 35°52' E 013°52'511.6
2017-May-12 20:30N 35°56' E 013°47'611.5
2017-May-12 19:57N 35°60' E 013°41'1311.3
2017-May-12 18:46N 36°08' E 013°28'311.3
2017-May-12 18:30N 36°10' E 013°25'611.2
2017-May-12 17:57N 36°14' E 013°19'710.9
2017-May-12 17:21N 36°18' E 013°13'410.8
2017-May-12 17:00N 36°20' E 013°09'910.9
2017-May-12 16:10N 36°26' E 013°00'210.9
2017-May-12 16:00N 36°27' E 012°59'611.0
2017-May-12 15:28N 36°31' E 012°53'14010.9
2017-May-12 02:39N 37°34' E 010°17'211.3
2017-May-12 02:30N 37°34' E 010°15'611.5
2017-May-12 02:00N 37°34' E 010°07'1111.8
2017-May-12 01:02N 37°34' E 009°53'111.4
2017-May-12 00:59N 37°34' E 009°53'511.2
2017-May-12 00:30N 37°34' E 009°46'38311.4
2017-May-10 14:48N 36°53' E 001°48'1111.2
2017-May-10 13:50N 36°49' E 001°35'411.4
2017-May-10 13:30N 36°48' E 001°31'611.6
2017-May-10 13:00N 36°47' E 001°24'611.9
2017-May-10 12:30N 36°45' E 001°17'93 2.0
2017-May-08 14:01N 35°51' W 000°18'0 0.5
2017-May-08 13:30N 35°51' W 000°18'2 2.5
2017-May-08 12:53N 35°51' W 000°16'2 3.7
2017-May-08 12:24N 35°53' W 000°15'3 5.9
2017-May-08 11:53N 35°56' W 000°15'1 1.7
2017-May-08 11:30N 35°56' W 000°16'1 2.1
2017-May-08 11:00N 35°57' W 000°17'3 5.9
2017-May-08 10:30N 35°60' W 000°19'2 3.7
2017-May-08 10:00N 36°01' W 000°19'0 0.7
2017-May-08 09:30N 36°02' W 000°19'1 0.8
2017-May-08 08:42N 36°02' W 000°18'0 0.7
2017-May-08 08:13N 36°02' W 000°18'0 0.7
2017-May-08 07:58N 36°02' W 000°18'1 0.7
2017-May-08 06:55N 36°03' W 000°17'0 0.9
2017-May-08 06:30N 36°03' W 000°17'1 1.2
2017-May-08 05:55N 36°04' W 000°18'3 3.8
2017-May-08 05:09N 36°06' W 000°20'2 4.7
2017-May-08 04:39N 36°08' W 000°22'0 1.2
2017-May-08 04:18N 36°07' W 000°22'0 0.7
2017-May-08 03:50N 36°07' W 000°21'0 0.7
2017-May-08 03:27N 36°07' W 000°21'3 0.9
2017-May-07 23:35N 36°06' W 000°17'1 1.1
2017-May-07 22:42N 36°05' W 000°16'0 1.2
2017-May-07 22:30N 36°05' W 000°16'1 1.2
2017-May-07 22:00N 36°05' W 000°15'1 0.4
2017-May-07 19:37N 36°04' W 000°15'0 1.1
2017-May-07 19:30N 36°04' W 000°15'1 1.1
2017-May-07 19:00N 36°05' W 000°15'1 1.4
2017-May-07 18:29N 36°05' W 000°15'1 2.3
2017-May-07 18:00N 36°06' W 000°16'4 8.5
2017-May-07 17:30N 36°10' W 000°17'7 6.2
2017-May-07 16:24N 36°17' W 000°18'0 0.8
2017-May-07 15:58N 36°17' W 000°17'2 1.0
2017-May-07 13:57N 36°16' W 000°15'0 1.0
2017-May-07 13:30N 36°16' W 000°15'0 0.9
2017-May-07 13:00N 36°15' W 000°14'0 1.0
2017-May-07 12:30N 36°15' W 000°14'0 1.0
2017-May-07 12:00N 36°15' W 000°13'0 0.9
2017-May-07 11:29N 36°15' W 000°13'  

Dump ship's entire track history